sensor_id;sensor_type;location;lat;lon;timestamp;temperature;humidity
2751;DHT22;1383;48.362;10.908;2022-11-20T00:00:53;7.50;78.50
2751;DHT22;1383;48.362;10.908;2022-11-20T00:03:20;7.50;78.40
2751;DHT22;1383;48.362;10.908;2022-11-20T00:05:47;7.50;77.90
2751;DHT22;1383;48.362;10.908;2022-11-20T00:08:14;7.40;77.30
2751;DHT22;1383;48.362;10.908;2022-11-20T00:10:41;7.40;77.40
2751;DHT22;1383;48.362;10.908;2022-11-20T00:13:08;7.30;77.30
2751;DHT22;1383;48.362;10.908;2022-11-20T00:15:34;7.40;78.30
2751;DHT22;1383;48.362;10.908;2022-11-20T00:18:01;7.40;78.30
2751;DHT22;1383;48.362;10.908;2022-11-20T00:20:28;7.30;78.60
2751;DHT22;1383;48.362;10.908;2022-11-20T00:22:55;7.30;78.60
2751;DHT22;1383;48.362;10.908;2022-11-20T00:25:21;7.30;79.00
2751;DHT22;1383;48.362;10.908;2022-11-20T00:27:48;7.30;80.10
2751;DHT22;1383;48.362;10.908;2022-11-20T00:30:15;7.20;80.00
2751;DHT22;1383;48.362;10.908;2022-11-20T00:32:42;7.20;80.10
2751;DHT22;1383;48.362;10.908;2022-11-20T00:35:09;7.10;79.90
2751;DHT22;1383;48.362;10.908;2022-11-20T00:37:35;7.20;79.70
2751;DHT22;1383;48.362;10.908;2022-11-20T00:40:02;7.20;79.70
2751;DHT22;1383;48.362;10.908;2022-11-20T00:42:29;7.20;79.80
2751;DHT22;1383;48.362;10.908;2022-11-20T00:44:57;7.20;80.30
2751;DHT22;1383;48.362;10.908;2022-11-20T00:47:24;7.20;79.00
2751;DHT22;1383;48.362;10.908;2022-11-20T00:49:50;7.30;78.90
2751;DHT22;1383;48.362;10.908;2022-11-20T00:52:17;7.30;77.70
2751;DHT22;1383;48.362;10.908;2022-11-20T00:54:44;7.30;77.00
2751;DHT22;1383;48.362;10.908;2022-11-20T00:57:11;7.30;75.70
2751;DHT22;1383;48.362;10.908;2022-11-20T00:59:38;7.20;75.90
2751;DHT22;1383;48.362;10.908;2022-11-20T01:02:04;7.30;75.90
2751;DHT22;1383;48.362;10.908;2022-11-20T01:04:31;7.30;76.20
2751;DHT22;1383;48.362;10.908;2022-11-20T01:06:58;7.30;75.90
2751;DHT22;1383;48.362;10.908;2022-11-20T01:09:25;7.30;75.40
2751;DHT22;1383;48.362;10.908;2022-11-20T01:11:52;7.30;75.40
2751;DHT22;1383;48.362;10.908;2022-11-20T01:14:19;7.30;73.80
2751;DHT22;1383;48.362;10.908;2022-11-20T01:16:50;7.30;74.00
2751;DHT22;1383;48.362;10.908;2022-11-20T01:19:20;7.30;73.70
2751;DHT22;1383;48.362;10.908;2022-11-20T01:21:51;7.30;73.80
2751;DHT22;1383;48.362;10.908;2022-11-20T01:24:19;7.30;73.60
2751;DHT22;1383;48.362;10.908;2022-11-20T01:26:49;7.30;73.00
2751;DHT22;1383;48.362;10.908;2022-11-20T01:29:19;7.30;73.00
2751;DHT22;1383;48.362;10.908;2022-11-20T01:31:47;7.30;72.60
2751;DHT22;1383;48.362;10.908;2022-11-20T01:34:16;7.30;72.80
2751;DHT22;1383;48.362;10.908;2022-11-20T01:36:44;7.30;72.60
2751;DHT22;1383;48.362;10.908;2022-11-20T01:39:17;7.30;72.20
2751;DHT22;1383;48.362;10.908;2022-11-20T01:41:46;7.30;72.60
2751;DHT22;1383;48.362;10.908;2022-11-20T01:44:55;7.30;72.10
2751;DHT22;1383;48.362;10.908;2022-11-20T01:47:42;7.20;72.00
2751;DHT22;1383;48.362;10.908;2022-11-20T01:50:15;7.00;72.20
2751;DHT22;1383;48.362;10.908;2022-11-20T01:52:47;7.00;72.80
2751;DHT22;1383;48.362;10.908;2022-11-20T01:55:23;7.00;72.90
2751;DHT22;1383;48.362;10.908;2022-11-20T01:57:52;6.90;73.50
2751;DHT22;1383;48.362;10.908;2022-11-20T02:00:20;6.90;73.80
2751;DHT22;1383;48.362;10.908;2022-11-20T02:02:53;6.80;73.80
2751;DHT22;1383;48.362;10.908;2022-11-20T02:07:58;6.80;74.30
2751;DHT22;1383;48.362;10.908;2022-11-20T02:10:26;6.80;74.30
2751;DHT22;1383;48.362;10.908;2022-11-20T02:12:53;6.70;74.20
2751;DHT22;1383;48.362;10.908;2022-11-20T02:15:40;6.80;74.40
2751;DHT22;1383;48.362;10.908;2022-11-20T02:18:09;6.70;73.90
2751;DHT22;1383;48.362;10.908;2022-11-20T02:20:36;6.70;74.20
2751;DHT22;1383;48.362;10.908;2022-11-20T02:23:05;6.70;74.80
2751;DHT22;1383;48.362;10.908;2022-11-20T02:25:35;6.70;75.00
2751;DHT22;1383;48.362;10.908;2022-11-20T02:28:04;6.70;74.60
2751;DHT22;1383;48.362;10.908;2022-11-20T02:30:31;6.70;74.20
2751;DHT22;1383;48.362;10.908;2022-11-20T02:32:58;6.70;74.30
2751;DHT22;1383;48.362;10.908;2022-11-20T02:37:54;6.70;73.90
2751;DHT22;1383;48.362;10.908;2022-11-20T02:40:22;6.70;73.80
2751;DHT22;1383;48.362;10.908;2022-11-20T02:42:53;6.70;74.40
2751;DHT22;1383;48.362;10.908;2022-11-20T02:45:20;6.70;73.90
2751;DHT22;1383;48.362;10.908;2022-11-20T02:47:47;6.70;74.00
2751;DHT22;1383;48.362;10.908;2022-11-20T02:50:13;6.70;74.00
2751;DHT22;1383;48.362;10.908;2022-11-20T02:52:40;6.70;73.80
2751;DHT22;1383;48.362;10.908;2022-11-20T02:55:07;6.80;73.80
2751;DHT22;1383;48.362;10.908;2022-11-20T02:57:41;6.80;73.40
2751;DHT22;1383;48.362;10.908;2022-11-20T03:00:09;6.70;73.20
2751;DHT22;1383;48.362;10.908;2022-11-20T03:02:36;6.70;73.20
2751;DHT22;1383;48.362;10.908;2022-11-20T03:05:02;6.70;73.40
2751;DHT22;1383;48.362;10.908;2022-11-20T03:07:29;6.70;73.10
2751;DHT22;1383;48.362;10.908;2022-11-20T03:09:56;6.80;73.20
2751;DHT22;1383;48.362;10.908;2022-11-20T03:12:23;6.80;73.00
2751;DHT22;1383;48.362;10.908;2022-11-20T03:14:49;6.80;72.60
2751;DHT22;1383;48.362;10.908;2022-11-20T03:17:19;6.80;72.20
2751;DHT22;1383;48.362;10.908;2022-11-20T03:19:46;6.70;71.70
2751;DHT22;1383;48.362;10.908;2022-11-20T03:22:12;6.80;72.20
2751;DHT22;1383;48.362;10.908;2022-11-20T03:24:39;6.70;72.10
2751;DHT22;1383;48.362;10.908;2022-11-20T03:27:06;6.70;71.90
2751;DHT22;1383;48.362;10.908;2022-11-20T03:29:35;6.70;72.50
2751;DHT22;1383;48.362;10.908;2022-11-20T03:32:01;6.70;71.80
2751;DHT22;1383;48.362;10.908;2022-11-20T03:34:28;6.70;71.30
2751;DHT22;1383;48.362;10.908;2022-11-20T03:36:55;6.70;71.40
2751;DHT22;1383;48.362;10.908;2022-11-20T03:39:22;6.70;71.70
2751;DHT22;1383;48.362;10.908;2022-11-20T03:41:49;6.70;71.60
2751;DHT22;1383;48.362;10.908;2022-11-20T03:44:16;6.70;72.10
2751;DHT22;1383;48.362;10.908;2022-11-20T03:46:43;6.70;72.00
2751;DHT22;1383;48.362;10.908;2022-11-20T03:49:10;6.70;71.90
2751;DHT22;1383;48.362;10.908;2022-11-20T03:51:36;6.70;71.80
2751;DHT22;1383;48.362;10.908;2022-11-20T03:54:05;6.70;71.20
2751;DHT22;1383;48.362;10.908;2022-11-20T03:56:35;6.70;71.20
2751;DHT22;1383;48.362;10.908;2022-11-20T03:59:03;6.70;71.30
2751;DHT22;1383;48.362;10.908;2022-11-20T04:01:35;6.80;70.90
2751;DHT22;1383;48.362;10.908;2022-11-20T04:04:02;6.90;70.80
2751;DHT22;1383;48.362;10.908;2022-11-20T04:06:33;6.80;69.80
2751;DHT22;1383;48.362;10.908;2022-11-20T04:09:01;6.90;69.70
2751;DHT22;1383;48.362;10.908;2022-11-20T04:11:30;6.90;69.50
2751;DHT22;1383;48.362;10.908;2022-11-20T04:14:02;6.80;69.20
2751;DHT22;1383;48.362;10.908;2022-11-20T04:16:31;6.90;68.80
2751;DHT22;1383;48.362;10.908;2022-11-20T04:19:00;6.90;68.70
2751;DHT22;1383;48.362;10.908;2022-11-20T04:21:27;6.90;68.70
2751;DHT22;1383;48.362;10.908;2022-11-20T04:23:55;6.90;68.40
2751;DHT22;1383;48.362;10.908;2022-11-20T04:26:23;7.00;68.40
2751;DHT22;1383;48.362;10.908;2022-11-20T04:28:50;6.90;67.90
2751;DHT22;1383;48.362;10.908;2022-11-20T04:31:20;6.80;67.80
2751;DHT22;1383;48.362;10.908;2022-11-20T04:33:47;6.80;67.80
2751;DHT22;1383;48.362;10.908;2022-11-20T04:36:20;6.90;67.80
2751;DHT22;1383;48.362;10.908;2022-11-20T04:38:54;6.90;67.20
2751;DHT22;1383;48.362;10.908;2022-11-20T04:41:25;6.90;66.20
2751;DHT22;1383;48.362;10.908;2022-11-20T04:43:54;6.90;65.90
2751;DHT22;1383;48.362;10.908;2022-11-20T04:46:27;6.90;66.40
2751;DHT22;1383;48.362;10.908;2022-11-20T04:48:54;6.90;65.90
2751;DHT22;1383;48.362;10.908;2022-11-20T04:51:21;6.90;66.00
2751;DHT22;1383;48.362;10.908;2022-11-20T04:53:48;6.90;66.10
2751;DHT22;1383;48.362;10.908;2022-11-20T04:56:15;6.80;66.30
2751;DHT22;1383;48.362;10.908;2022-11-20T04:58:42;6.80;66.20
2751;DHT22;1383;48.362;10.908;2022-11-20T05:01:17;6.80;65.60
2751;DHT22;1383;48.362;10.908;2022-11-20T05:03:45;6.80;65.50
2751;DHT22;1383;48.362;10.908;2022-11-20T05:06:15;6.70;65.30
2751;DHT22;1383;48.362;10.908;2022-11-20T05:08:42;6.70;65.10
2751;DHT22;1383;48.362;10.908;2022-11-20T05:11:12;6.70;65.20
2751;DHT22;1383;48.362;10.908;2022-11-20T05:13:39;6.70;65.70
2751;DHT22;1383;48.362;10.908;2022-11-20T05:16:14;6.60;65.70
2751;DHT22;1383;48.362;10.908;2022-11-20T05:18:42;6.60;66.20
2751;DHT22;1383;48.362;10.908;2022-11-20T05:21:09;6.60;66.30
2751;DHT22;1383;48.362;10.908;2022-11-20T05:23:37;6.60;65.90
2751;DHT22;1383;48.362;10.908;2022-11-20T05:26:04;6.70;66.10
2751;DHT22;1383;48.362;10.908;2022-11-20T05:28:32;6.60;65.70
2751;DHT22;1383;48.362;10.908;2022-11-20T05:31:11;6.60;65.80
2751;DHT22;1383;48.362;10.908;2022-11-20T05:33:43;6.60;65.80
2751;DHT22;1383;48.362;10.908;2022-11-20T05:36:11;6.60;65.70
2751;DHT22;1383;48.362;10.908;2022-11-20T05:38:39;6.60;65.80
2751;DHT22;1383;48.362;10.908;2022-11-20T05:41:17;6.70;66.10
2751;DHT22;1383;48.362;10.908;2022-11-20T05:43:46;6.70;65.60
2751;DHT22;1383;48.362;10.908;2022-11-20T05:46:15;6.70;65.20
2751;DHT22;1383;48.362;10.908;2022-11-20T05:48:43;6.70;65.00
2751;DHT22;1383;48.362;10.908;2022-11-20T05:51:12;6.70;65.00
2751;DHT22;1383;48.362;10.908;2022-11-20T05:53:39;6.70;64.80
2751;DHT22;1383;48.362;10.908;2022-11-20T05:56:16;6.70;64.90
2751;DHT22;1383;48.362;10.908;2022-11-20T05:58:44;6.70;64.40
2751;DHT22;1383;48.362;10.908;2022-11-20T06:01:22;6.80;64.40
2751;DHT22;1383;48.362;10.908;2022-11-20T06:03:49;6.80;64.30
2751;DHT22;1383;48.362;10.908;2022-11-20T06:06:18;6.80;64.10
2751;DHT22;1383;48.362;10.908;2022-11-20T06:08:45;6.80;64.30
2751;DHT22;1383;48.362;10.908;2022-11-20T06:11:14;6.80;64.40
2751;DHT22;1383;48.362;10.908;2022-11-20T06:13:41;6.80;64.90
2751;DHT22;1383;48.362;10.908;2022-11-20T06:16:10;6.90;64.30
2751;DHT22;1383;48.362;10.908;2022-11-20T06:18:38;6.80;64.00
2751;DHT22;1383;48.362;10.908;2022-11-20T06:21:06;6.80;64.00
2751;DHT22;1383;48.362;10.908;2022-11-20T06:23:34;6.80;64.70
2751;DHT22;1383;48.362;10.908;2022-11-20T06:26:06;6.80;64.70
2751;DHT22;1383;48.362;10.908;2022-11-20T06:28:33;6.80;64.40
2751;DHT22;1383;48.362;10.908;2022-11-20T06:31:00;6.80;63.60
2751;DHT22;1383;48.362;10.908;2022-11-20T06:33:27;6.80;63.30
2751;DHT22;1383;48.362;10.908;2022-11-20T06:35:58;6.80;63.00
2751;DHT22;1383;48.362;10.908;2022-11-20T06:38:34;6.80;62.80
2751;DHT22;1383;48.362;10.908;2022-11-20T06:41:01;6.80;62.80
2751;DHT22;1383;48.362;10.908;2022-11-20T06:43:29;6.80;63.30
2751;DHT22;1383;48.362;10.908;2022-11-20T06:45:57;6.80;63.00
2751;DHT22;1383;48.362;10.908;2022-11-20T06:48:26;6.80;63.50
2751;DHT22;1383;48.362;10.908;2022-11-20T06:50:53;6.80;63.60
2751;DHT22;1383;48.362;10.908;2022-11-20T06:53:21;6.80;63.90
2751;DHT22;1383;48.362;10.908;2022-11-20T06:55:50;6.90;64.20
2751;DHT22;1383;48.362;10.908;2022-11-20T06:58:17;6.90;63.90
2751;DHT22;1383;48.362;10.908;2022-11-20T07:00:44;7.00;64.30
2751;DHT22;1383;48.362;10.908;2022-11-20T07:03:12;7.00;63.50
2751;DHT22;1383;48.362;10.908;2022-11-20T07:05:39;7.00;63.20
2751;DHT22;1383;48.362;10.908;2022-11-20T07:08:07;7.10;62.80
2751;DHT22;1383;48.362;10.908;2022-11-20T07:10:34;7.10;62.50
2751;DHT22;1383;48.362;10.908;2022-11-20T07:13:01;7.10;62.80
2751;DHT22;1383;48.362;10.908;2022-11-20T07:15:28;7.20;62.80
2751;DHT22;1383;48.362;10.908;2022-11-20T07:17:55;7.20;62.20
2751;DHT22;1383;48.362;10.908;2022-11-20T07:20:24;7.20;62.00
2751;DHT22;1383;48.362;10.908;2022-11-20T07:22:55;7.20;61.00
2751;DHT22;1383;48.362;10.908;2022-11-20T07:25:23;7.20;60.60
2751;DHT22;1383;48.362;10.908;2022-11-20T07:27:50;7.10;60.00
2751;DHT22;1383;48.362;10.908;2022-11-20T07:30:17;7.10;60.40
2751;DHT22;1383;48.362;10.908;2022-11-20T07:32:51;7.20;61.40
2751;DHT22;1383;48.362;10.908;2022-11-20T07:35:18;7.20;60.60
2751;DHT22;1383;48.362;10.908;2022-11-20T07:37:45;7.20;60.00
2751;DHT22;1383;48.362;10.908;2022-11-20T07:40:12;7.20;60.20
2751;DHT22;1383;48.362;10.908;2022-11-20T07:42:50;7.20;60.20
2751;DHT22;1383;48.362;10.908;2022-11-20T07:45:18;7.20;59.60
2751;DHT22;1383;48.362;10.908;2022-11-20T07:47:45;7.20;59.90
2751;DHT22;1383;48.362;10.908;2022-11-20T07:50:12;7.30;59.50
2751;DHT22;1383;48.362;10.908;2022-11-20T07:52:40;7.40;59.20
2751;DHT22;1383;48.362;10.908;2022-11-20T07:55:08;7.50;58.80
2751;DHT22;1383;48.362;10.908;2022-11-20T07:57:35;7.50;57.80
2751;DHT22;1383;48.362;10.908;2022-11-20T08:00:04;7.50;57.50
2751;DHT22;1383;48.362;10.908;2022-11-20T08:02:31;7.50;57.80
2751;DHT22;1383;48.362;10.908;2022-11-20T08:04:58;7.50;57.90
2751;DHT22;1383;48.362;10.908;2022-11-20T08:07:25;7.50;57.50
2751;DHT22;1383;48.362;10.908;2022-11-20T08:09:52;7.50;57.10
2751;DHT22;1383;48.362;10.908;2022-11-20T08:12:20;7.50;57.10
2751;DHT22;1383;48.362;10.908;2022-11-20T08:15:06;7.60;56.80
2751;DHT22;1383;48.362;10.908;2022-11-20T08:17:38;7.50;56.20
2751;DHT22;1383;48.362;10.908;2022-11-20T08:20:05;7.50;56.40
2751;DHT22;1383;48.362;10.908;2022-11-20T08:22:32;7.60;56.60
2751;DHT22;1383;48.362;10.908;2022-11-20T08:24:59;7.60;56.10
2751;DHT22;1383;48.362;10.908;2022-11-20T08:27:26;7.70;56.40
2751;DHT22;1383;48.362;10.908;2022-11-20T08:29:53;7.80;55.60
2751;DHT22;1383;48.362;10.908;2022-11-20T08:32:19;7.80;55.00
2751;DHT22;1383;48.362;10.908;2022-11-20T08:34:46;7.80;55.50
2751;DHT22;1383;48.362;10.908;2022-11-20T08:37:13;7.80;55.50
2751;DHT22;1383;48.362;10.908;2022-11-20T08:39:40;7.80;55.80
2751;DHT22;1383;48.362;10.908;2022-11-20T08:42:07;7.80;55.70
2751;DHT22;1383;48.362;10.908;2022-11-20T08:44:34;7.80;56.20
2751;DHT22;1383;48.362;10.908;2022-11-20T08:47:01;7.90;55.70
2751;DHT22;1383;48.362;10.908;2022-11-20T08:49:28;7.90;55.60
2751;DHT22;1383;48.362;10.908;2022-11-20T08:51:54;7.90;55.60
2751;DHT22;1383;48.362;10.908;2022-11-20T08:54:21;8.00;55.60
2751;DHT22;1383;48.362;10.908;2022-11-20T08:56:49;8.10;55.10
2751;DHT22;1383;48.362;10.908;2022-11-20T08:59:15;8.10;55.80
2751;DHT22;1383;48.362;10.908;2022-11-20T09:02:02;8.10;55.10
2751;DHT22;1383;48.362;10.908;2022-11-20T09:04:29;8.10;54.70
2751;DHT22;1383;48.362;10.908;2022-11-20T09:06:56;8.10;54.80
2751;DHT22;1383;48.362;10.908;2022-11-20T09:09:23;8.10;54.80
2751;DHT22;1383;48.362;10.908;2022-11-20T09:11:50;8.20;54.20
2751;DHT22;1383;48.362;10.908;2022-11-20T09:14:17;8.20;54.50
2751;DHT22;1383;48.362;10.908;2022-11-20T09:16:45;8.20;54.30
2751;DHT22;1383;48.362;10.908;2022-11-20T09:19:13;8.30;54.30
2751;DHT22;1383;48.362;10.908;2022-11-20T09:21:59;8.30;54.20
2751;DHT22;1383;48.362;10.908;2022-11-20T09:24:27;8.40;53.80
2751;DHT22;1383;48.362;10.908;2022-11-20T09:26:54;8.40;54.10
2751;DHT22;1383;48.362;10.908;2022-11-20T09:29:21;8.30;54.10
2751;DHT22;1383;48.362;10.908;2022-11-20T09:31:48;8.30;54.10
2751;DHT22;1383;48.362;10.908;2022-11-20T09:34:15;8.20;54.30
2751;DHT22;1383;48.362;10.908;2022-11-20T09:36:42;8.10;54.90
2751;DHT22;1383;48.362;10.908;2022-11-20T09:39:09;8.10;55.40
2751;DHT22;1383;48.362;10.908;2022-11-20T09:52:58;8.70;54.90
2751;DHT22;1383;48.362;10.908;2022-11-20T09:55:30;8.90;53.60
2751;DHT22;1383;48.362;10.908;2022-11-20T09:57:57;9.00;53.00
2751;DHT22;1383;48.362;10.908;2022-11-20T10:00:27;9.20;52.30
2751;DHT22;1383;48.362;10.908;2022-11-20T10:03:11;9.20;50.80
2751;DHT22;1383;48.362;10.908;2022-11-20T10:05:46;9.10;51.00
2751;DHT22;1383;48.362;10.908;2022-11-20T10:08:24;9.00;51.10
2751;DHT22;1383;48.362;10.908;2022-11-20T10:18:57;8.70;52.70
2751;DHT22;1383;48.362;10.908;2022-11-20T10:21:51;8.50;52.60
2751;DHT22;1383;48.362;10.908;2022-11-20T10:30:11;8.50;52.80
2751;DHT22;1383;48.362;10.908;2022-11-20T10:32:45;8.60;53.20
2751;DHT22;1383;48.362;10.908;2022-11-20T10:35:40;8.60;53.30
2751;DHT22;1383;48.362;10.908;2022-11-20T10:38:20;8.70;53.40
2751;DHT22;1383;48.362;10.908;2022-11-20T10:40:52;8.70;52.90
2751;DHT22;1383;48.362;10.908;2022-11-20T10:43:32;8.70;52.20
2751;DHT22;1383;48.362;10.908;2022-11-20T10:46:03;8.70;52.00
2751;DHT22;1383;48.362;10.908;2022-11-20T10:48:32;8.70;52.40
2751;DHT22;1383;48.362;10.908;2022-11-20T10:57:17;8.70;51.90
2751;DHT22;1383;48.362;10.908;2022-11-20T11:02:44;8.70;51.90
2751;DHT22;1383;48.362;10.908;2022-11-20T11:07:59;8.60;51.30
2751;DHT22;1383;48.362;10.908;2022-11-20T11:10:32;8.60;51.80
2751;DHT22;1383;48.362;10.908;2022-11-20T11:13:02;8.60;51.80
2751;DHT22;1383;48.362;10.908;2022-11-20T11:15:38;8.80;52.00
2751;DHT22;1383;48.362;10.908;2022-11-20T11:18:09;8.80;52.00
2751;DHT22;1383;48.362;10.908;2022-11-20T11:20:36;8.70;53.70
2751;DHT22;1383;48.362;10.908;2022-11-20T11:23:03;8.60;55.60
2751;DHT22;1383;48.362;10.908;2022-11-20T11:25:36;8.50;55.50
2751;DHT22;1383;48.362;10.908;2022-11-20T11:28:22;8.40;56.50
2751;DHT22;1383;48.362;10.908;2022-11-20T11:30:52;8.40;55.10
2751;DHT22;1383;48.362;10.908;2022-11-20T11:35:49;8.50;56.10
2751;DHT22;1383;48.362;10.908;2022-11-20T11:38:28;8.50;55.20
2751;DHT22;1383;48.362;10.908;2022-11-20T11:40:56;8.50;55.50
2751;DHT22;1383;48.362;10.908;2022-11-20T11:43:26;8.50;55.60
2751;DHT22;1383;48.362;10.908;2022-11-20T11:46:33;8.60;55.20
2751;DHT22;1383;48.362;10.908;2022-11-20T11:49:17;8.70;54.70
2751;DHT22;1383;48.362;10.908;2022-11-20T11:52:04;8.60;53.70
2751;DHT22;1383;48.362;10.908;2022-11-20T11:54:45;8.70;54.20
2751;DHT22;1383;48.362;10.908;2022-11-20T12:00:09;8.60;53.60
2751;DHT22;1383;48.362;10.908;2022-11-20T12:05:24;8.70;55.00
2751;DHT22;1383;48.362;10.908;2022-11-20T12:07:56;8.70;56.20
2751;DHT22;1383;48.362;10.908;2022-11-20T12:13:15;8.50;56.70
2751;DHT22;1383;48.362;10.908;2022-11-20T12:15:45;8.50;57.20
2751;DHT22;1383;48.362;10.908;2022-11-20T12:18:20;8.40;57.50
2751;DHT22;1383;48.362;10.908;2022-11-20T12:21:12;8.50;57.50
2751;DHT22;1383;48.362;10.908;2022-11-20T12:26:47;8.50;57.30
2751;DHT22;1383;48.362;10.908;2022-11-20T12:29:31;8.30;57.60
2751;DHT22;1383;48.362;10.908;2022-11-20T12:45:51;8.30;61.60
2751;DHT22;1383;48.362;10.908;2022-11-20T13:02:37;8.30;59.70
2751;DHT22;1383;48.362;10.908;2022-11-20T13:05:26;8.30;60.20
2751;DHT22;1383;48.362;10.908;2022-11-20T13:07:54;8.30;59.70
2751;DHT22;1383;48.362;10.908;2022-11-20T13:13:29;8.30;59.40
2751;DHT22;1383;48.362;10.908;2022-11-20T13:16:09;8.30;59.40
2751;DHT22;1383;48.362;10.908;2022-11-20T13:18:41;8.40;59.30
2751;DHT22;1383;48.362;10.908;2022-11-20T13:21:16;8.30;58.80
2751;DHT22;1383;48.362;10.908;2022-11-20T13:23:43;8.30;59.20
2751;DHT22;1383;48.362;10.908;2022-11-20T13:26:19;8.20;59.20
2751;DHT22;1383;48.362;10.908;2022-11-20T13:28:59;8.20;60.20
2751;DHT22;1383;48.362;10.908;2022-11-20T13:33:56;8.10;62.90
2751;DHT22;1383;48.362;10.908;2022-11-20T13:36:27;8.00;62.30
2751;DHT22;1383;48.362;10.908;2022-11-20T13:38:55;8.00;62.10
2751;DHT22;1383;48.362;10.908;2022-11-20T13:41:33;8.10;62.70
2751;DHT22;1383;48.362;10.908;2022-11-20T13:45:01;8.10;62.60
2751;DHT22;1383;48.362;10.908;2022-11-20T13:47:17;8.20;62.80
2751;DHT22;1383;48.362;10.908;2022-11-20T13:49:46;8.30;63.00
2751;DHT22;1383;48.362;10.908;2022-11-20T13:52:42;8.20;62.00
2751;DHT22;1383;48.362;10.908;2022-11-20T14:03:30;8.30;61.60
2751;DHT22;1383;48.362;10.908;2022-11-20T14:06:30;8.30;61.10
2751;DHT22;1383;48.362;10.908;2022-11-20T14:08:58;8.30;61.20
2751;DHT22;1383;48.362;10.908;2022-11-20T14:11:28;8.20;60.60
2751;DHT22;1383;48.362;10.908;2022-11-20T14:14:19;8.20;61.10
2751;DHT22;1383;48.362;10.908;2022-11-20T14:16:49;8.20;60.90
2751;DHT22;1383;48.362;10.908;2022-11-20T14:21:47;8.20;61.80
2751;DHT22;1383;48.362;10.908;2022-11-20T14:24:19;8.20;61.80
2751;DHT22;1383;48.362;10.908;2022-11-20T14:26:47;8.20;61.90
2751;DHT22;1383;48.362;10.908;2022-11-20T14:29:19;8.20;61.50
2751;DHT22;1383;48.362;10.908;2022-11-20T14:31:48;8.20;61.40
2751;DHT22;1383;48.362;10.908;2022-11-20T14:34:28;8.10;61.60
2751;DHT22;1383;48.362;10.908;2022-11-20T14:37:04;8.10;61.70
2751;DHT22;1383;48.362;10.908;2022-11-20T14:39:37;8.00;62.00
2751;DHT22;1383;48.362;10.908;2022-11-20T14:42:18;8.10;62.10
2751;DHT22;1383;48.362;10.908;2022-11-20T14:44:45;8.10;61.30
2751;DHT22;1383;48.362;10.908;2022-11-20T14:47:18;8.10;61.70
2751;DHT22;1383;48.362;10.908;2022-11-20T14:49:45;8.10;61.30
2751;DHT22;1383;48.362;10.908;2022-11-20T14:52:19;8.10;61.20
2751;DHT22;1383;48.362;10.908;2022-11-20T14:54:51;8.10;60.80
2751;DHT22;1383;48.362;10.908;2022-11-20T14:57:30;8.10;60.30
2751;DHT22;1383;48.362;10.908;2022-11-20T15:02:47;8.20;60.70
2751;DHT22;1383;48.362;10.908;2022-11-20T15:05:15;8.20;60.10
2751;DHT22;1383;48.362;10.908;2022-11-20T15:07:51;8.20;60.60
2751;DHT22;1383;48.362;10.908;2022-11-20T15:10:26;8.20;60.70
2751;DHT22;1383;48.362;10.908;2022-11-20T15:13:03;8.30;60.60
2751;DHT22;1383;48.362;10.908;2022-11-20T15:18:18;8.20;60.10
2751;DHT22;1383;48.362;10.908;2022-11-20T15:20:46;8.20;61.10
2751;DHT22;1383;48.362;10.908;2022-11-20T15:23:18;8.10;62.20
2751;DHT22;1383;48.362;10.908;2022-11-20T15:25:46;8.00;62.40
2751;DHT22;1383;48.362;10.908;2022-11-20T15:28:17;7.90;63.80
2751;DHT22;1383;48.362;10.908;2022-11-20T15:30:46;7.80;63.10
2751;DHT22;1383;48.362;10.908;2022-11-20T15:33:14;7.80;63.30
2751;DHT22;1383;48.362;10.908;2022-11-20T15:35:41;7.70;62.70
2751;DHT22;1383;48.362;10.908;2022-11-20T15:38:08;7.70;62.10
2751;DHT22;1383;48.362;10.908;2022-11-20T15:40:35;7.70;62.30
2751;DHT22;1383;48.362;10.908;2022-11-20T15:43:02;7.70;62.40
2751;DHT22;1383;48.362;10.908;2022-11-20T15:45:41;7.60;62.60
2751;DHT22;1383;48.362;10.908;2022-11-20T15:48:15;7.70;62.40
2751;DHT22;1383;48.362;10.908;2022-11-20T15:53:36;7.70;62.20
2751;DHT22;1383;48.362;10.908;2022-11-20T15:56:04;7.70;62.10
2751;DHT22;1383;48.362;10.908;2022-11-20T15:58:31;7.70;61.80
2751;DHT22;1383;48.362;10.908;2022-11-20T16:00:58;7.70;61.80
2751;DHT22;1383;48.362;10.908;2022-11-20T16:03:25;7.70;62.10
2751;DHT22;1383;48.362;10.908;2022-11-20T16:05:52;7.70;62.00
2751;DHT22;1383;48.362;10.908;2022-11-20T16:08:19;7.70;62.10
2751;DHT22;1383;48.362;10.908;2022-11-20T16:10:46;7.70;62.50
2751;DHT22;1383;48.362;10.908;2022-11-20T16:13:16;7.70;62.50
2751;DHT22;1383;48.362;10.908;2022-11-20T16:16:07;7.80;62.10
2751;DHT22;1383;48.362;10.908;2022-11-20T16:18:36;7.80;62.20
2751;DHT22;1383;48.362;10.908;2022-11-20T16:21:03;7.80;62.10
2751;DHT22;1383;48.362;10.908;2022-11-20T16:23:30;7.80;63.00
2751;DHT22;1383;48.362;10.908;2022-11-20T16:25:57;7.70;63.80
2751;DHT22;1383;48.362;10.908;2022-11-20T16:28:23;7.70;63.60
2751;DHT22;1383;48.362;10.908;2022-11-20T16:30:50;7.60;63.60
2751;DHT22;1383;48.362;10.908;2022-11-20T16:33:17;7.70;64.40
2751;DHT22;1383;48.362;10.908;2022-11-20T16:35:44;7.60;64.40
2751;DHT22;1383;48.362;10.908;2022-11-20T16:38:10;7.60;65.00
2751;DHT22;1383;48.362;10.908;2022-11-20T16:40:37;7.60;65.30
2751;DHT22;1383;48.362;10.908;2022-11-20T16:43:13;7.60;65.40
2751;DHT22;1383;48.362;10.908;2022-11-20T16:45:43;7.60;64.00
2751;DHT22;1383;48.362;10.908;2022-11-20T16:48:15;7.50;63.50
2751;DHT22;1383;48.362;10.908;2022-11-20T16:53:14;7.50;61.70
2751;DHT22;1383;48.362;10.908;2022-11-20T16:55:41;7.40;61.70
2751;DHT22;1383;48.362;10.908;2022-11-20T16:58:08;7.40;61.90
2751;DHT22;1383;48.362;10.908;2022-11-20T17:00:38;7.40;62.00
2751;DHT22;1383;48.362;10.908;2022-11-20T17:03:06;7.30;62.60
2751;DHT22;1383;48.362;10.908;2022-11-20T17:05:33;7.20;63.50
2751;DHT22;1383;48.362;10.908;2022-11-20T17:08:00;7.20;64.50
2751;DHT22;1383;48.362;10.908;2022-11-20T17:10:27;7.20;64.70
2751;DHT22;1383;48.362;10.908;2022-11-20T17:12:54;7.20;65.30
2751;DHT22;1383;48.362;10.908;2022-11-20T17:15:21;7.20;65.60
2751;DHT22;1383;48.362;10.908;2022-11-20T17:17:48;7.20;66.00
2751;DHT22;1383;48.362;10.908;2022-11-20T17:20:15;7.20;66.20
2751;DHT22;1383;48.362;10.908;2022-11-20T17:22:42;7.20;66.70
2751;DHT22;1383;48.362;10.908;2022-11-20T17:25:08;7.20;67.10
2751;DHT22;1383;48.362;10.908;2022-11-20T17:27:35;7.20;67.40
2751;DHT22;1383;48.362;10.908;2022-11-20T17:30:02;7.20;67.90
2751;DHT22;1383;48.362;10.908;2022-11-20T17:32:29;7.20;68.20
2751;DHT22;1383;48.362;10.908;2022-11-20T17:34:55;7.20;68.00
2751;DHT22;1383;48.362;10.908;2022-11-20T17:37:24;7.10;68.20
2751;DHT22;1383;48.362;10.908;2022-11-20T17:39:51;7.10;68.50
2751;DHT22;1383;48.362;10.908;2022-11-20T17:42:17;7.10;69.00
2751;DHT22;1383;48.362;10.908;2022-11-20T17:44:55;7.10;69.20
2751;DHT22;1383;48.362;10.908;2022-11-20T17:47:24;7.10;69.60
2751;DHT22;1383;48.362;10.908;2022-11-20T17:49:51;7.00;69.70
2751;DHT22;1383;48.362;10.908;2022-11-20T17:52:19;6.90;70.30
2751;DHT22;1383;48.362;10.908;2022-11-20T17:54:46;6.80;70.50
2751;DHT22;1383;48.362;10.908;2022-11-20T17:57:12;6.80;70.60
2751;DHT22;1383;48.362;10.908;2022-11-20T17:59:58;6.70;70.80
2751;DHT22;1383;48.362;10.908;2022-11-20T18:02:24;6.70;71.10
2751;DHT22;1383;48.362;10.908;2022-11-20T18:04:51;6.60;71.10
2751;DHT22;1383;48.362;10.908;2022-11-20T18:07:18;6.60;70.90
2751;DHT22;1383;48.362;10.908;2022-11-20T18:09:45;6.60;70.50
2751;DHT22;1383;48.362;10.908;2022-11-20T18:12:12;6.50;70.40